Aviation Digital Data Service (ADDS)

Output produced by METARs form (0022 UTC 19 August 2019)
found at http://www.aviationweather.gov/metar/data/
 
METAR text: PACD 182353Z 02020G30KT 10SM CLR 22/09 A3003 RMK AO2 PK WND 02033/2324 SLP170 T02170094 10222 20133 58016
Conditions at: PACD (COLD BAY , AK, US) observed 2353 UTC 18 August 2019
Temperature: 21.7°C (71°F)
Dewpoint: 9.4°C (49°F) [RH = 45%]
Pressure (altimeter): 30.03 inches Hg (1017.0 mb)
[Sea-level pressure: 1017.0 mb]
Winds: from the NNE (20 degrees) at 23 MPH (20 knots; 10.3 m/s)
gusting to 34 MPH (30 knots; 15.4 m/s)
Visibility: 10 or more miles (16+ km)
Ceiling: at least 12,000 feet AGL
Clouds: sky clear below 12,000 feet AGL
Weather: no significant weather observed at this time

METAR text: PACD 182253Z 02022G32KT 10SM CLR 22/09 A3005 RMK AO2 PK WND 02032/2253 SLP176 T02170094
Conditions at: PACD (COLD BAY , AK, US) observed 2253 UTC 18 August 2019
Temperature: 21.7°C (71°F)
Dewpoint: 9.4°C (49°F) [RH = 45%]
Pressure (altimeter): 30.05 inches Hg (1017.7 mb)
[Sea-level pressure: 1017.6 mb]
Winds: from the NNE (20 degrees) at 25 MPH (22 knots; 11.3 m/s)
gusting to 37 MPH (32 knots; 16.5 m/s)
Visibility: 10 or more miles (16+ km)
Ceiling: at least 12,000 feet AGL
Clouds: sky clear below 12,000 feet AGL
Weather: no significant weather observed at this time

METAR text: PACD 182153Z 03022G31KT 10SM CLR 21/09 A3007 RMK AO2 PK WND 04032/2129 SLP182 T02110094
Conditions at: PACD (COLD BAY , AK, US) observed 2153 UTC 18 August 2019
Temperature: 21.1°C (70°F)
Dewpoint: 9.4°C (49°F) [RH = 47%]
Pressure (altimeter): 30.07 inches Hg (1018.4 mb)
[Sea-level pressure: 1018.2 mb]
Winds: from the NNE (30 degrees) at 25 MPH (22 knots; 11.3 m/s)
gusting to 36 MPH (31 knots; 15.9 m/s)
Visibility: 10 or more miles (16+ km)
Ceiling: at least 12,000 feet AGL
Clouds: sky clear below 12,000 feet AGL
Weather: no significant weather observed at this time

METAR text: PACD 182053Z 03017G26KT 10SM CLR 21/10 A3008 RMK AO2 PK WND 03026/2050 SLP186 T02110100 58017
Conditions at: PACD (COLD BAY , AK, US) observed 2053 UTC 18 August 2019
Temperature: 21.1°C (70°F)
Dewpoint: 10.0°C (50°F) [RH = 49%]
Pressure (altimeter): 30.08 inches Hg (1018.7 mb)
[Sea-level pressure: 1018.6 mb]
Winds: from the NNE (30 degrees) at 20 MPH (17 knots; 8.7 m/s)
gusting to 30 MPH (26 knots; 13.4 m/s)
Visibility: 10 or more miles (16+ km)
Ceiling: at least 12,000 feet AGL
Clouds: sky clear below 12,000 feet AGL
Weather: no significant weather observed at this time

METAR text: PACD 181953Z 28005KT 9SM VCFG CLR 18/13 A3011 RMK AO2 SLP196 T01830128
Conditions at: PACD (COLD BAY , AK, US) observed 1953 UTC 18 August 2019
Temperature: 18.3°C (65°F)
Dewpoint: 12.8°C (55°F) [RH = 70%]
Pressure (altimeter): 30.11 inches Hg (1019.7 mb)
[Sea-level pressure: 1019.6 mb]
Winds: from the W (280 degrees) at 6 MPH (5 knots; 2.6 m/s)
Visibility: 9 miles (14 km)
Ceiling: at least 12,000 feet AGL
Clouds: sky clear below 12,000 feet AGL
Weather: VCFG  (fog in vicinity)

METAR text: PACD 181853Z 30007KT 10SM VCFG CLR 16/12 A3012 RMK AO2 SLP200 T01610122
Conditions at: PACD (COLD BAY , AK, US) observed 1853 UTC 18 August 2019
Temperature: 16.1°C (61°F)
Dewpoint: 12.2°C (54°F) [RH = 78%]
Pressure (altimeter): 30.12 inches Hg (1020.1 mb)
[Sea-level pressure: 1020.0 mb]
Winds: from the WNW (300 degrees) at 8 MPH (7 knots; 3.6 m/s)
Visibility: 10 or more miles (16+ km)
Ceiling: at least 12,000 feet AGL
Clouds: sky clear below 12,000 feet AGL
Weather: VCFG  (fog in vicinity)

METAR text: PACD 181753Z 00000KT 10SM VCFG CLR 14/13 A3013 RMK AO2 SLP203 VCFG W T01390128 10139 20100 56004
Conditions at: PACD (COLD BAY , AK, US) observed 1753 UTC 18 August 2019
Temperature: 13.9°C (57°F)
Dewpoint: 12.8°C (55°F) [RH = 93%]
Pressure (altimeter): 30.13 inches Hg (1020.4 mb)
[Sea-level pressure: 1020.3 mb]
Winds: calm
Visibility: 10 or more miles (16+ km)
Ceiling: at least 12,000 feet AGL
Clouds: sky clear below 12,000 feet AGL
Weather: VCFG  (fog in vicinity)

METAR text: PACD 181735Z 17003KT 10SM FEW001 13/13 A3013 RMK AO2 FEW001 W T01330133
Conditions at: PACD (COLD BAY , AK, US) observed 1735 UTC 18 August 2019
Temperature: 13.3°C (56°F)
Dewpoint: 13.3°C (56°F) [RH = 100%]
Pressure (altimeter): 30.13 inches Hg (1020.4 mb)
Winds: from the S (170 degrees) at 3 MPH (3 knots; 1.5 m/s)
Visibility: 10 or more miles (16+ km)
Ceiling: at least 12,000 feet AGL
Clouds: few clouds at 100 feet AGL
Weather: no significant weather observed at this time

METAR text: PACD 181728Z 00000KT 1SM BR VV001 13/13 A3013 RMK AO2 T01280128
Conditions at: PACD (COLD BAY , AK, US) observed 1728 UTC 18 August 2019
Temperature: 12.8°C (55°F)
Dewpoint: 12.8°C (55°F) [RH = 100%]
Pressure (altimeter): 30.13 inches Hg (1020.4 mb)
Winds: calm
Visibility: 1.00 miles (1.61 km)
Ceiling: indefinite ceiling with vertical visibility of 100 feet AGL
Clouds: obscured sky
Weather: BR  (mist)

METAR text: PACD 181653Z 00000KT 1/4SM FG VV001 12/12 A3014 RMK AO2 SLP205 T01220117
Conditions at: PACD (COLD BAY , AK, US) observed 1653 UTC 18 August 2019
Temperature: 12.2°C (54°F)
Dewpoint: 11.7°C (53°F) [RH = 97%]
Pressure (altimeter): 30.14 inches Hg (1020.7 mb)
[Sea-level pressure: 1020.5 mb]
Winds: calm
Visibility: 0.25 miles (0.40 km)
Ceiling: indefinite ceiling with vertical visibility of 100 feet AGL
Clouds: obscured sky
Weather: FG  (fog)

METAR text: PACD 181553Z AUTO 00000KT M1/4SM FG VV001 13/12 A3013 RMK AO2 SLP205 T01280117 TSNO
Conditions at: PACD (COLD BAY , AK, US) observed 1553 UTC 18 August 2019
Temperature: 12.8°C (55°F)
Dewpoint: 11.7°C (53°F) [RH = 93%]
Pressure (altimeter): 30.13 inches Hg (1020.4 mb)
[Sea-level pressure: 1020.5 mb]
Winds: calm
Visibility: 0.25 miles (0.40 km)
Ceiling: indefinite ceiling with vertical visibility of 100 feet AGL
Clouds: obscured sky
Weather: FG  (fog)

METAR text: PACD 181512Z AUTO 01003KT 1/4SM FG VV001 13/13 A3014 RMK AO2 T01280128 TSNO
Conditions at: PACD (COLD BAY , AK, US) observed 1512 UTC 18 August 2019
Temperature: 12.8°C (55°F)
Dewpoint: 12.8°C (55°F) [RH = 100%]
Pressure (altimeter): 30.14 inches Hg (1020.7 mb)
Winds: from the N (10 degrees) at 3 MPH (3 knots; 1.5 m/s)
Visibility: 0.25 miles (0.40 km)
Ceiling: indefinite ceiling with vertical visibility of 100 feet AGL
Clouds: obscured sky
Weather: FG  (fog)

METAR text: PACD 181504Z AUTO 00000KT 1/2SM FG VV002 13/13 A3014 RMK AO2 T01280128 TSNO
Conditions at: PACD (COLD BAY , AK, US) observed 1504 UTC 18 August 2019
Temperature: 12.8°C (55°F)
Dewpoint: 12.8°C (55°F) [RH = 100%]
Pressure (altimeter): 30.14 inches Hg (1020.7 mb)
Winds: calm
Visibility: 0.50 miles (0.80 km)
Ceiling: indefinite ceiling with vertical visibility of 200 feet AGL
Clouds: obscured sky
Weather: FG  (fog)

METAR text: PACD 181453Z AUTO 07004KT 1SM BR VV002 13/12 A3014 RMK AO2 SLP207 T01280122 56009 TSNO
Conditions at: PACD (COLD BAY , AK, US) observed 1453 UTC 18 August 2019
Temperature: 12.8°C (55°F)
Dewpoint: 12.2°C (54°F) [RH = 96%]
Pressure (altimeter): 30.14 inches Hg (1020.7 mb)
[Sea-level pressure: 1020.7 mb]
Winds: from the ENE (70 degrees) at 5 MPH (4 knots; 2.1 m/s)
Visibility: 1.00 miles (1.61 km)
Ceiling: indefinite ceiling with vertical visibility of 200 feet AGL
Clouds: obscured sky
Weather: BR  (mist)

METAR text: PACD 181425Z AUTO 04007KT 3/4SM BR VV002 12/11 A3015 RMK AO2 T01220111 TSNO
Conditions at: PACD (COLD BAY , AK, US) observed 1425 UTC 18 August 2019
Temperature: 12.2°C (54°F)
Dewpoint: 11.1°C (52°F) [RH = 93%]
Pressure (altimeter): 30.15 inches Hg (1021.1 mb)
Winds: from the NE (40 degrees) at 8 MPH (7 knots; 3.6 m/s)
Visibility: 0.75 miles (1.21 km)
Ceiling: indefinite ceiling with vertical visibility of 200 feet AGL
Clouds: obscured sky
Weather: BR  (mist)

METAR text: PACD 181419Z AUTO 05009KT 2 1/2SM BR SCT002 12/11 A3014 RMK AO2 T01220111 TSNO
Conditions at: PACD (COLD BAY , AK, US) observed 1419 UTC 18 August 2019
Temperature: 12.2°C (54°F)
Dewpoint: 11.1°C (52°F) [RH = 93%]
Pressure (altimeter): 30.14 inches Hg (1020.7 mb)
Winds: from the NE (50 degrees) at 10 MPH (9 knots; 4.6 m/s)
Visibility: 2.50 miles (4.02 km)
Ceiling: at least 12,000 feet AGL
Clouds: scattered clouds at 200 feet AGL
Weather: BR  (mist)

METAR text: PACD 181353Z AUTO 05003KT 10SM CLR 11/11 A3015 RMK AO2 SLP208 T01110106 TSNO
Conditions at: PACD (COLD BAY , AK, US) observed 1353 UTC 18 August 2019
Temperature: 11.1°C (52°F)
Dewpoint: 10.6°C (51°F) [RH = 97%]
Pressure (altimeter): 30.15 inches Hg (1021.1 mb)
[Sea-level pressure: 1020.8 mb]
Winds: from the NE (50 degrees) at 3 MPH (3 knots; 1.5 m/s)
Visibility: 10 or more miles (16+ km)
Ceiling: at least 12,000 feet AGL
Clouds: sky clear below 12,000 feet AGL
Weather: automated observation with no human augmentation;
there may or may not be significant weather present at this time

METAR text: PACD 181253Z AUTO 09003KT 10SM FEW003 13/13 A3016 RMK AO2 SLP214 T01330128 TSNO
Conditions at: PACD (COLD BAY , AK, US) observed 1253 UTC 18 August 2019
Temperature: 13.3°C (56°F)
Dewpoint: 12.8°C (55°F) [RH = 97%]
Pressure (altimeter): 30.16 inches Hg (1021.4 mb)
[Sea-level pressure: 1021.4 mb]
Winds: from the E (90 degrees) at 3 MPH (3 knots; 1.5 m/s)
Visibility: 10 or more miles (16+ km)
Ceiling: at least 12,000 feet AGL
Clouds: few clouds at 300 feet AGL
Weather: automated observation with no human augmentation;
there may or may not be significant weather present at this time

METAR text: PACD 181232Z AUTO 06008KT 10SM FEW004 13/12 A3017 RMK AO2 T01330122 TSNO
Conditions at: PACD (COLD BAY , AK, US) observed 1232 UTC 18 August 2019
Temperature: 13.3°C (56°F)
Dewpoint: 12.2°C (54°F) [RH = 93%]
Pressure (altimeter): 30.17 inches Hg (1021.8 mb)
Winds: from the ENE (60 degrees) at 9 MPH (8 knots; 4.1 m/s)
Visibility: 10 or more miles (16+ km)
Ceiling: at least 12,000 feet AGL
Clouds: few clouds at 400 feet AGL
Weather: automated observation with no human augmentation;
there may or may not be significant weather present at this time

METAR text: PACD 181153Z AUTO 36005KT 10SM CLR 12/11 A3017 RMK AO2 SLP217 T01220111 10150 20122 58022 TSNO
Conditions at: PACD (COLD BAY , AK, US) observed 1153 UTC 18 August 2019
Temperature: 12.2°C (54°F)
Dewpoint: 11.1°C (52°F) [RH = 93%]
Pressure (altimeter): 30.17 inches Hg (1021.8 mb)
[Sea-level pressure: 1021.7 mb]
Winds: from the N (360 degrees) at 6 MPH (5 knots; 2.6 m/s)
Visibility: 10 or more miles (16+ km)
Ceiling: at least 12,000 feet AGL
Clouds: sky clear below 12,000 feet AGL
Weather: automated observation with no human augmentation;
there may or may not be significant weather present at this time

METAR text: PACD 181115Z AUTO 02008KT 10SM SCT009 14/13 A3018 RMK AO2 T01390128 TSNO
Conditions at: PACD (COLD BAY , AK, US) observed 1115 UTC 18 August 2019
Temperature: 13.9°C (57°F)
Dewpoint: 12.8°C (55°F) [RH = 93%]
Pressure (altimeter): 30.18 inches Hg (1022.1 mb)
Winds: from the NNE (20 degrees) at 9 MPH (8 knots; 4.1 m/s)
Visibility: 10 or more miles (16+ km)
Ceiling: at least 12,000 feet AGL
Clouds: scattered clouds at 900 feet AGL
Weather: automated observation with no human augmentation;
there may or may not be significant weather present at this time

METAR text: PACD 181053Z AUTO 34007KT 10SM BKN010 14/13 A3019 RMK AO2 SLP225 T01390128 TSNO
Conditions at: PACD (COLD BAY , AK, US) observed 1053 UTC 18 August 2019
Temperature: 13.9°C (57°F)
Dewpoint: 12.8°C (55°F) [RH = 93%]
Pressure (altimeter): 30.19 inches Hg (1022.4 mb)
[Sea-level pressure: 1022.5 mb]
Winds: from the NNW (340 degrees) at 8 MPH (7 knots; 3.6 m/s)
Visibility: 10 or more miles (16+ km)
Ceiling: 1000 feet AGL
Clouds: broken clouds at 1000 feet AGL
Weather: automated observation with no human augmentation;
there may or may not be significant weather present at this time

METAR text: PACD 181044Z AUTO 33008KT 10SM BKN010 14/13 A3020 RMK AO2 T01390128 TSNO
Conditions at: PACD (COLD BAY , AK, US) observed 1044 UTC 18 August 2019
Temperature: 13.9°C (57°F)
Dewpoint: 12.8°C (55°F) [RH = 93%]
Pressure (altimeter): 30.20 inches Hg (1022.8 mb)
Winds: from the NNW (330 degrees) at 9 MPH (8 knots; 4.1 m/s)
Visibility: 10 or more miles (16+ km)
Ceiling: 1000 feet AGL
Clouds: broken clouds at 1000 feet AGL
Weather: automated observation with no human augmentation;
there may or may not be significant weather present at this time

METAR text: PACD 180953Z AUTO 33012KT 10SM OVC007 14/13 A3021 RMK AO2 SLP232 T01440128 TSNO
Conditions at: PACD (COLD BAY , AK, US) observed 0953 UTC 18 August 2019
Temperature: 14.4°C (58°F)
Dewpoint: 12.8°C (55°F) [RH = 90%]
Pressure (altimeter): 30.21 inches Hg (1023.1 mb)
[Sea-level pressure: 1023.2 mb]
Winds: from the NNW (330 degrees) at 14 MPH (12 knots; 6.2 m/s)
Visibility: 10 or more miles (16+ km)
Ceiling: 700 feet AGL
Clouds: overcast cloud deck at 700 feet AGL
Weather: automated observation with no human augmentation;
there may or may not be significant weather present at this time

METAR text: PACD 180853Z AUTO 34010KT 10SM OVC005 14/12 A3024 RMK AO2 SLP239 T01390122 402000128 58001 TSNO
Conditions at: PACD (COLD BAY , AK, US) observed 0853 UTC 18 August 2019
Temperature: 13.9°C (57°F)
Dewpoint: 12.2°C (54°F) [RH = 89%]
Pressure (altimeter): 30.24 inches Hg (1024.1 mb)
[Sea-level pressure: 1023.9 mb]
Winds: from the NNW (340 degrees) at 12 MPH (10 knots; 5.1 m/s)
Visibility: 10 or more miles (16+ km)
Ceiling: 500 feet AGL
Clouds: overcast cloud deck at 500 feet AGL
Weather: automated observation with no human augmentation;
there may or may not be significant weather present at this time

METAR text: PACD 180822Z AUTO 35006G14KT 10SM OVC005 14/13 A3024 RMK AO2 T01390133 TSNO
Conditions at: PACD (COLD BAY , AK, US) observed 0822 UTC 18 August 2019
Temperature: 13.9°C (57°F)
Dewpoint: 13.3°C (56°F) [RH = 96%]
Pressure (altimeter): 30.24 inches Hg (1024.1 mb)
Winds: from the N (350 degrees) at 7 MPH (6 knots; 3.1 m/s)
gusting to 16 MPH (14 knots; 7.2 m/s)
Visibility: 10 or more miles (16+ km)
Ceiling: 500 feet AGL
Clouds: overcast cloud deck at 500 feet AGL
Weather: automated observation with no human augmentation;
there may or may not be significant weather present at this time

METAR text: PACD 180753Z AUTO 36012G19KT 10SM OVC004 14/13 A3025 RMK AO2 SLP243 T01390128 TSNO
Conditions at: PACD (COLD BAY , AK, US) observed 0753 UTC 18 August 2019
Temperature: 13.9°C (57°F)
Dewpoint: 12.8°C (55°F) [RH = 93%]
Pressure (altimeter): 30.25 inches Hg (1024.5 mb)
[Sea-level pressure: 1024.3 mb]
Winds: from the N (360 degrees) at 14 MPH (12 knots; 6.2 m/s)
gusting to 22 MPH (19 knots; 9.8 m/s)
Visibility: 10 or more miles (16+ km)
Ceiling: 400 feet AGL
Clouds: overcast cloud deck at 400 feet AGL
Weather: automated observation with no human augmentation;
there may or may not be significant weather present at this time

METAR text: PACD 180724Z AUTO 35015G23KT 10SM BKN004 14/13 A3024 RMK AO2 T01390128 TSNO
Conditions at: PACD (COLD BAY , AK, US) observed 0724 UTC 18 August 2019
Temperature: 13.9°C (57°F)
Dewpoint: 12.8°C (55°F) [RH = 93%]
Pressure (altimeter): 30.24 inches Hg (1024.1 mb)
Winds: from the N (350 degrees) at 17 MPH (15 knots; 7.7 m/s)
gusting to 26 MPH (23 knots; 11.8 m/s)
Visibility: 10 or more miles (16+ km)
Ceiling: 400 feet AGL
Clouds: broken clouds at 400 feet AGL
Weather: automated observation with no human augmentation;
there may or may not be significant weather present at this time

METAR text: PACD 180715Z AUTO 35017G23KT 10SM SCT004 14/13 A3025 RMK AO2 T01390128 TSNO
Conditions at: PACD (COLD BAY , AK, US) observed 0715 UTC 18 August 2019
Temperature: 13.9°C (57°F)
Dewpoint: 12.8°C (55°F) [RH = 93%]
Pressure (altimeter): 30.25 inches Hg (1024.5 mb)
Winds: from the N (350 degrees) at 20 MPH (17 knots; 8.7 m/s)
gusting to 26 MPH (23 knots; 11.8 m/s)
Visibility: 10 or more miles (16+ km)
Ceiling: at least 12,000 feet AGL
Clouds: scattered clouds at 400 feet AGL
Weather: automated observation with no human augmentation;
there may or may not be significant weather present at this time

METAR text: PACD 180653Z AUTO 36020KT 10SM CLR 14/13 A3024 RMK AO2 PK WND 35026/0651 SLP240 T01390128 TSNO
Conditions at: PACD (COLD BAY , AK, US) observed 0653 UTC 18 August 2019
Temperature: 13.9°C (57°F)
Dewpoint: 12.8°C (55°F) [RH = 93%]
Pressure (altimeter): 30.24 inches Hg (1024.1 mb)
[Sea-level pressure: 1024.0 mb]
Winds: from the N (360 degrees) at 23 MPH (20 knots; 10.3 m/s)
Visibility: 10 or more miles (16+ km)
Ceiling: at least 12,000 feet AGL
Clouds: sky clear below 12,000 feet AGL
Weather: automated observation with no human augmentation;
there may or may not be significant weather present at this time

METAR text: PACD 180553Z AUTO 35020G26KT 10SM CLR 15/13 A3024 RMK AO2 PK WND 36028/0523 SLP240 T01500128 10200 20150 56009 TSNO
Conditions at: PACD (COLD BAY , AK, US) observed 0553 UTC 18 August 2019
Temperature: 15.0°C (59°F)
Dewpoint: 12.8°C (55°F) [RH = 87%]
Pressure (altimeter): 30.24 inches Hg (1024.1 mb)
[Sea-level pressure: 1024.0 mb]
Winds: from the N (350 degrees) at 23 MPH (20 knots; 10.3 m/s)
gusting to 30 MPH (26 knots; 13.4 m/s)
Visibility: 10 or more miles (16+ km)
Ceiling: at least 12,000 feet AGL
Clouds: sky clear below 12,000 feet AGL
Weather: automated observation with no human augmentation;
there may or may not be significant weather present at this time

METAR text: PACD 180453Z AUTO 36020G29KT 10SM CLR 16/13 A3024 RMK AO2 PK WND 01029/0405 SLP240 T01610133 TSNO
Conditions at: PACD (COLD BAY , AK, US) observed 0453 UTC 18 August 2019
Temperature: 16.1°C (61°F)
Dewpoint: 13.3°C (56°F) [RH = 83%]
Pressure (altimeter): 30.24 inches Hg (1024.1 mb)
[Sea-level pressure: 1024.0 mb]
Winds: from the N (360 degrees) at 23 MPH (20 knots; 10.3 m/s)
gusting to 33 MPH (29 knots; 14.9 m/s)
Visibility: 10 or more miles (16+ km)
Ceiling: at least 12,000 feet AGL
Clouds: sky clear below 12,000 feet AGL
Weather: automated observation with no human augmentation;
there may or may not be significant weather present at this time

METAR text: PACD 180353Z AUTO 36021G28KT 10SM CLR 18/14 A3025 RMK AO2 PK WND 35029/0330 SLP245 T01780139 TSNO
Conditions at: PACD (COLD BAY , AK, US) observed 0353 UTC 18 August 2019
Temperature: 17.8°C (64°F)
Dewpoint: 13.9°C (57°F) [RH = 78%]
Pressure (altimeter): 30.25 inches Hg (1024.5 mb)
[Sea-level pressure: 1024.5 mb]
Winds: from the N (360 degrees) at 24 MPH (21 knots; 10.8 m/s)
gusting to 32 MPH (28 knots; 14.4 m/s)
Visibility: 10 or more miles (16+ km)
Ceiling: at least 12,000 feet AGL
Clouds: sky clear below 12,000 feet AGL
Weather: automated observation with no human augmentation;
there may or may not be significant weather present at this time

METAR text: PACD 180253Z AUTO 01017G27KT 10SM CLR 18/14 A3026 RMK AO2 PK WND 36029/0155 SLP249 T01830139 58015 TSNO
Conditions at: PACD (COLD BAY , AK, US) observed 0253 UTC 18 August 2019
Temperature: 18.3°C (65°F)
Dewpoint: 13.9°C (57°F) [RH = 76%]
Pressure (altimeter): 30.26 inches Hg (1024.8 mb)
[Sea-level pressure: 1024.9 mb]
Winds: from the N (10 degrees) at 20 MPH (17 knots; 8.7 m/s)
gusting to 31 MPH (27 knots; 13.9 m/s)
Visibility: 10 or more miles (16+ km)
Ceiling: at least 12,000 feet AGL
Clouds: sky clear below 12,000 feet AGL
Weather: automated observation with no human augmentation;
there may or may not be significant weather present at this time

METAR text: PACD 180153Z AUTO 36022G28KT 10SM CLR 19/14 A3028 RMK AO2 PK WND 36029/0101 SLP254 T01890139 TSNO
Conditions at: PACD (COLD BAY , AK, US) observed 0153 UTC 18 August 2019
Temperature: 18.9°C (66°F)
Dewpoint: 13.9°C (57°F) [RH = 73%]
Pressure (altimeter): 30.28 inches Hg (1025.5 mb)
[Sea-level pressure: 1025.4 mb]
Winds: from the N (360 degrees) at 25 MPH (22 knots; 11.3 m/s)
gusting to 32 MPH (28 knots; 14.4 m/s)
Visibility: 10 or more miles (16+ km)
Ceiling: at least 12,000 feet AGL
Clouds: sky clear below 12,000 feet AGL
Weather: automated observation with no human augmentation;
there may or may not be significant weather present at this time

METAR text: PACD 180053Z 35021G26KT 10SM FEW020 19/14 A3030 RMK AO2 PK WND 35028/0023 SLP260 T01940139
Conditions at: PACD (COLD BAY , AK, US) observed 0053 UTC 18 August 2019
Temperature: 19.4°C (67°F)
Dewpoint: 13.9°C (57°F) [RH = 71%]
Pressure (altimeter): 30.30 inches Hg (1026.2 mb)
[Sea-level pressure: 1026.0 mb]
Winds: from the N (350 degrees) at 24 MPH (21 knots; 10.8 m/s)
gusting to 30 MPH (26 knots; 13.4 m/s)
Visibility: 10 or more miles (16+ km)
Ceiling: at least 12,000 feet AGL
Clouds: few clouds at 2000 feet AGL
Weather: no significant weather observed at this time

METAR text: PACD 172353Z 35022G27KT 10SM FEW020 19/13 A3031 RMK AO2 PK WND 35030/2316 SLP264 T01940133 10194 20156 58022
Conditions at: PACD (COLD BAY , AK, US) observed 2353 UTC 17 August 2019
Temperature: 19.4°C (67°F)
Dewpoint: 13.3°C (56°F) [RH = 68%]
Pressure (altimeter): 30.31 inches Hg (1026.5 mb)
[Sea-level pressure: 1026.4 mb]
Winds: from the N (350 degrees) at 25 MPH (22 knots; 11.3 m/s)
gusting to 31 MPH (27 knots; 13.9 m/s)
Visibility: 10 or more miles (16+ km)
Ceiling: at least 12,000 feet AGL
Clouds: few clouds at 2000 feet AGL
Weather: no significant weather observed at this time

METAR text: PACD 172253Z 36019G28KT 10SM CLR 19/13 A3033 RMK AO2 PK WND 35028/2248 SLP272 T01940133
Conditions at: PACD (COLD BAY , AK, US) observed 2253 UTC 17 August 2019
Temperature: 19.4°C (67°F)
Dewpoint: 13.3°C (56°F) [RH = 68%]
Pressure (altimeter): 30.33 inches Hg (1027.2 mb)
[Sea-level pressure: 1027.2 mb]
Winds: from the N (360 degrees) at 22 MPH (19 knots; 9.8 m/s)
gusting to 32 MPH (28 knots; 14.4 m/s)
Visibility: 10 or more miles (16+ km)
Ceiling: at least 12,000 feet AGL
Clouds: sky clear below 12,000 feet AGL
Weather: no significant weather observed at this time

METAR text: PACD 172153Z 35017G26KT 10SM FEW020 19/13 A3035 RMK AO2 PK WND 36028/2128 SLP279 T01940133
Conditions at: PACD (COLD BAY , AK, US) observed 2153 UTC 17 August 2019
Temperature: 19.4°C (67°F)
Dewpoint: 13.3°C (56°F) [RH = 68%]
Pressure (altimeter): 30.35 inches Hg (1027.9 mb)
[Sea-level pressure: 1027.9 mb]
Winds: from the N (350 degrees) at 20 MPH (17 knots; 8.7 m/s)
gusting to 30 MPH (26 knots; 13.4 m/s)
Visibility: 10 or more miles (16+ km)
Ceiling: at least 12,000 feet AGL
Clouds: few clouds at 2000 feet AGL
Weather: no significant weather observed at this time

METAR text: PACD 172053Z 35017G23KT 10SM FEW014 18/13 A3038 RMK AO2 SLP286 T01830128 58009
Conditions at: PACD (COLD BAY , AK, US) observed 2053 UTC 17 August 2019
Temperature: 18.3°C (65°F)
Dewpoint: 12.8°C (55°F) [RH = 70%]
Pressure (altimeter): 30.38 inches Hg (1028.9 mb)
[Sea-level pressure: 1028.6 mb]
Winds: from the N (350 degrees) at 20 MPH (17 knots; 8.7 m/s)
gusting to 26 MPH (23 knots; 11.8 m/s)
Visibility: 10 or more miles (16+ km)
Ceiling: at least 12,000 feet AGL
Clouds: few clouds at 1400 feet AGL
Weather: no significant weather observed at this time

METAR text: PACD 171953Z 35016G24KT 10SM FEW014 17/13 A3039 RMK AO2 PK WND 36029/1855 SLP291 T01720128
Conditions at: PACD (COLD BAY , AK, US) observed 1953 UTC 17 August 2019
Temperature: 17.2°C (63°F)
Dewpoint: 12.8°C (55°F) [RH = 75%]
Pressure (altimeter): 30.39 inches Hg (1029.2 mb)
[Sea-level pressure: 1029.1 mb]
Winds: from the N (350 degrees) at 18 MPH (16 knots; 8.2 m/s)
gusting to 28 MPH (24 knots; 12.3 m/s)
Visibility: 10 or more miles (16+ km)
Ceiling: at least 12,000 feet AGL
Clouds: few clouds at 1400 feet AGL
Weather: no significant weather observed at this time

METAR text: PACD 171853Z 36022G30KT 10SM FEW010 16/12 A3039 RMK AO2 PK WND 35030/1848 SLP293 T01610117
Conditions at: PACD (COLD BAY , AK, US) observed 1853 UTC 17 August 2019
Temperature: 16.1°C (61°F)
Dewpoint: 11.7°C (53°F) [RH = 75%]
Pressure (altimeter): 30.39 inches Hg (1029.2 mb)
[Sea-level pressure: 1029.3 mb]
Winds: from the N (360 degrees) at 25 MPH (22 knots; 11.3 m/s)
gusting to 34 MPH (30 knots; 15.4 m/s)
Visibility: 10 or more miles (16+ km)
Ceiling: at least 12,000 feet AGL
Clouds: few clouds at 1000 feet AGL
Weather: no significant weather observed at this time

METAR text: PACD 171753Z 35017G21KT 10SM FEW010 16/12 A3040 RMK AO2 SLP296 T01560122 10156 20133 58008
Conditions at: PACD (COLD BAY , AK, US) observed 1753 UTC 17 August 2019
Temperature: 15.6°C (60°F)
Dewpoint: 12.2°C (54°F) [RH = 80%]
Pressure (altimeter): 30.40 inches Hg (1029.5 mb)
[Sea-level pressure: 1029.6 mb]
Winds: from the N (350 degrees) at 20 MPH (17 knots; 8.7 m/s)
gusting to 24 MPH (21 knots; 10.8 m/s)
Visibility: 10 or more miles (16+ km)
Ceiling: at least 12,000 feet AGL
Clouds: few clouds at 1000 feet AGL
Weather: no significant weather observed at this time

METAR text: PACD 171653Z 34015KT 10SM FEW010 14/12 A3041 RMK AO2 SLP299 T01440122
Conditions at: PACD (COLD BAY , AK, US) observed 1653 UTC 17 August 2019
Temperature: 14.4°C (58°F)
Dewpoint: 12.2°C (54°F) [RH = 87%]
Pressure (altimeter): 30.41 inches Hg (1029.9 mb)
[Sea-level pressure: 1029.9 mb]
Winds: from the NNW (340 degrees) at 17 MPH (15 knots; 7.7 m/s)
Visibility: 10 or more miles (16+ km)
Ceiling: at least 12,000 feet AGL
Clouds: few clouds at 1000 feet AGL
Weather: no significant weather observed at this time

METAR text: PACD 171553Z AUTO 34011KT 10SM CLR 13/12 A3042 RMK AO2 SLP302 T01330117 TSNO
Conditions at: PACD (COLD BAY , AK, US) observed 1553 UTC 17 August 2019
Temperature: 13.3°C (56°F)
Dewpoint: 11.7°C (53°F) [RH = 90%]
Pressure (altimeter): 30.42 inches Hg (1030.2 mb)
[Sea-level pressure: 1030.2 mb]
Winds: from the NNW (340 degrees) at 13 MPH (11 knots; 5.7 m/s)
Visibility: 10 or more miles (16+ km)
Ceiling: at least 12,000 feet AGL
Clouds: sky clear below 12,000 feet AGL
Weather: automated observation with no human augmentation;
there may or may not be significant weather present at this time

METAR text: PACD 171453Z AUTO 33013KT 10SM CLR 13/11 A3043 RMK AO2 SLP304 T01330111 58006 TSNO
Conditions at: PACD (COLD BAY , AK, US) observed 1453 UTC 17 August 2019
Temperature: 13.3°C (56°F)
Dewpoint: 11.1°C (52°F) [RH = 87%]
Pressure (altimeter): 30.43 inches Hg (1030.6 mb)
[Sea-level pressure: 1030.4 mb]
Winds: from the NNW (330 degrees) at 15 MPH (13 knots; 6.7 m/s)
Visibility: 10 or more miles (16+ km)
Ceiling: at least 12,000 feet AGL
Clouds: sky clear below 12,000 feet AGL
Weather: automated observation with no human augmentation;
there may or may not be significant weather present at this time

METAR text: PACD 171353Z AUTO 34009G17KT 10SM CLR 13/11 A3044 RMK AO2 SLP309 T01330111 TSNO
Conditions at: PACD (COLD BAY , AK, US) observed 1353 UTC 17 August 2019
Temperature: 13.3°C (56°F)
Dewpoint: 11.1°C (52°F) [RH = 87%]
Pressure (altimeter): 30.44 inches Hg (1030.9 mb)
[Sea-level pressure: 1030.9 mb]
Winds: from the NNW (340 degrees) at 10 MPH (9 knots; 4.6 m/s)
gusting to 20 MPH (17 knots; 8.7 m/s)
Visibility: 10 or more miles (16+ km)
Ceiling: at least 12,000 feet AGL
Clouds: sky clear below 12,000 feet AGL
Weather: automated observation with no human augmentation;
there may or may not be significant weather present at this time

METAR text: PACD 171253Z AUTO 34010KT 10SM CLR 13/11 A3045 RMK AO2 SLP310 T01330111 TSNO
Conditions at: PACD (COLD BAY , AK, US) observed 1253 UTC 17 August 2019
Temperature: 13.3°C (56°F)
Dewpoint: 11.1°C (52°F) [RH = 87%]
Pressure (altimeter): 30.45 inches Hg (1031.2 mb)
[Sea-level pressure: 1031.0 mb]
Winds: from the NNW (340 degrees) at 12 MPH (10 knots; 5.1 m/s)
Visibility: 10 or more miles (16+ km)
Ceiling: at least 12,000 feet AGL
Clouds: sky clear below 12,000 feet AGL
Weather: automated observation with no human augmentation;
there may or may not be significant weather present at this time

Forecast for: PACD (COLD BAY , AK, US)
Text: PACD 182337Z 1900/1924 02022G32KT P6SM SKC
Forecast period: 0000 to 0800 UTC 19 August 2019
Forecast type: FROM: standard forecast or significant change
Winds: from the NNE (20 degrees) at 25 MPH (22 knots; 11.3 m/s)
gusting to 37 MPH (32 knots; 16.5 m/s)
Visibility: 6 or more miles 10+ km)
Clouds: clear skies
Weather: no significant weather forecast for this period
Text: FM190800 02010KT P6SM SCT070
Forecast period: 0800 UTC 19 August 2019 to 0000 UTC 20 August 2019
Forecast type: FROM: standard forecast or significant change
Winds: from the NNE (20 degrees) at 12 MPH (10 knots; 5.1 m/s)
Visibility: 6 or more miles 10+ km)
Ceiling: at least 12,000 feet AGL
Clouds: scattered clouds at 7000 feet AGL
Weather: no significant weather forecast for this period